Time;durP1;ratioP1;P1;durP2;ratioP2;P2;SDS_P1;SDS_P2;PMS_P1;PMS_P2;Temp;Humidity;BMP_temperature;BMP_pressure;BME280_temperature;BME280_humidity;BME280_pressure;Samples;Min_cycle;Max_cycle;Signal;HPM_P1;HPM_P2
2023/04/21 00:02:01;;;;;;;15.83;9.67;;;;;;;;;;5112837;28;20197;-79
2023/04/21 00:04:29;;;;;;;13.77;8.87;;;;;;;;;;5112762;28;20230;-80
2023/04/21 00:06:56;;;;;;;14.40;9.10;;;;;;;;;;5112631;28;20290;-80
2023/04/21 00:09:23;;;;;;;16.80;9.93;;;;;;;;;;5112859;28;20297;-80
2023/04/21 00:11:50;;;;;;;13.27;9.10;;;;;;;;;;5112089;28;20277;-78
2023/04/21 00:14:19;;;;;;;14.23;9.43;;;;;;;;;;5112038;28;20254;-80
2023/04/21 00:16:46;;;;;;;13.07;9.30;;;;;;;;;;5112751;28;20230;-80
2023/04/21 00:19:14;;;;;;;15.73;9.30;;;;;;;;;;5112507;28;20220;-80
2023/04/21 00:21:41;;;;;;;15.23;9.93;;;;;;;;;;5111973;28;20565;-80
2023/04/21 00:24:08;;;;;;;14.63;10.23;;;;;;;;;;5111712;28;20229;-79
2023/04/21 00:26:35;;;;;;;14.43;10.20;;;;;;;;;;5111974;28;20284;-80
2023/04/21 00:29:03;;;;;;;14.57;9.73;;;;;;;;;;5111816;28;20289;-80
2023/04/21 00:31:31;;;;;;;13.23;9.47;;;;;;;;;;5112379;28;20193;-79
2023/04/21 00:33:59;;;;;;;15.13;9.90;;;;;;;;;;5111960;28;20237;-79
2023/04/21 00:36:27;;;;;;;15.67;9.90;;;;;;;;;;5111907;28;20198;-79
2023/04/21 00:38:54;;;;;;;15.80;9.87;;;;;;;;;;5112087;28;20194;-80
2023/04/21 00:41:22;;;;;;;15.33;10.13;;;;;;;;;;5111404;28;20284;-80
2023/04/21 00:44:02;;;;;;;12.63;9.77;;;;;;;;;;5111903;28;20709;-79
2023/04/21 00:46:29;;;;;;;15.10;10.17;;;;;;;;;;5111661;28;20238;-80
2023/04/21 00:48:58;;;;;;;18.47;11.10;;;;;;;;;;5112130;28;20200;-80
2023/04/21 00:51:25;;;;;;;16.40;10.53;;;;;;;;;;5111959;28;20289;-80
2023/04/21 00:53:53;;;;;;;16.40;10.53;;;;;;;;;;5111681;28;20828;-79
2023/04/21 00:56:20;;;;;;;15.47;10.93;;;;;;;;;;5111431;28;20284;-80
2023/04/21 00:58:48;;;;;;;14.07;10.53;;;;;;;;;;5111800;28;20206;-80
2023/04/21 01:01:16;;;;;;;19.33;11.13;;;;;;;;;;5111338;28;20208;-80
2023/04/21 01:03:43;;;;;;;15.57;10.83;;;;;;;;;;5111737;28;20193;-79
2023/04/21 01:06:12;;;;;;;14.37;10.57;;;;;;;;;;5112064;28;20193;-79
2023/04/21 01:08:40;;;;;;;14.43;11.27;;;;;;;;;;5111742;28;20643;-79
2023/04/21 01:11:11;;;;;;;17.73;11.13;;;;;;;;;;5111612;28;20198;-80
2023/04/21 01:13:38;;;;;;;18.37;11.23;;;;;;;;;;5111996;28;20631;-79
2023/04/21 01:16:06;;;;;;;16.03;10.93;;;;;;;;;;5111282;28;20201;-80
2023/04/21 01:18:34;;;;;;;17.57;12.07;;;;;;;;;;5111610;28;20573;-80
2023/04/21 01:21:01;;;;;;;16.83;13.07;;;;;;;;;;5111460;28;20197;-79
2023/04/21 01:23:29;;;;;;;16.10;12.23;;;;;;;;;;5111442;28;20296;-79
2023/04/21 01:25:56;;;;;;;18.23;12.87;;;;;;;;;;5111137;28;20260;-79
2023/04/21 01:28:24;;;;;;;20.37;12.53;;;;;;;;;;5111636;28;20197;-79
2023/04/21 01:30:51;;;;;;;16.30;13.07;;;;;;;;;;5111464;28;20197;-79
2023/04/21 01:33:19;;;;;;;18.57;12.80;;;;;;;;;;5111753;28;20240;-80
2023/04/21 01:35:46;;;;;;;17.10;13.13;;;;;;;;;;5114913;28;20638;-80
2023/04/21 01:38:17;;;;;;;21.00;13.53;;;;;;;;;;5115901;28;20281;-79
2023/04/21 01:40:46;;;;;;;20.93;14.07;;;;;;;;;;5114591;28;20656;-80
2023/04/21 01:43:14;;;;;;;18.43;13.83;;;;;;;;;;5115365;28;20323;-79
2023/04/21 01:45:41;;;;;;;22.37;14.53;;;;;;;;;;5115302;28;20261;-81
2023/04/21 01:48:08;;;;;;;24.37;14.87;;;;;;;;;;5115424;28;20237;-79
2023/04/21 01:50:35;;;;;;;21.13;14.87;;;;;;;;;;5115144;28;20682;-80
2023/04/21 01:53:03;;;;;;;19.73;14.13;;;;;;;;;;5115479;28;20276;-80
2023/04/21 01:55:30;;;;;;;20.53;13.50;;;;;;;;;;5114821;28;20292;-80
2023/04/21 01:57:59;;;;;;;21.93;13.67;;;;;;;;;;5115305;28;20228;-80
2023/04/21 02:00:26;;;;;;;20.43;13.43;;;;;;;;;;5115146;28;20591;-80
2023/04/21 02:02:53;;;;;;;21.10;13.47;;;;;;;;;;5115446;28;20197;-79
2023/04/21 02:05:20;;;;;;;19.50;13.50;;;;;;;;;;5114685;28;20256;-81
2023/04/21 02:07:47;;;;;;;20.23;13.93;;;;;;;;;;5114379;28;20735;-80
2023/04/21 02:10:15;;;;;;;21.27;14.60;;;;;;;;;;5114768;28;20289;-80
2023/04/21 02:12:42;;;;;;;20.90;15.07;;;;;;;;;;5114709;28;20304;-80
2023/04/21 02:15:11;;;;;;;20.33;14.70;;;;;;;;;;5115372;28;20267;-81
2023/04/21 02:17:38;;;;;;;20.60;15.07;;;;;;;;;;5115052;28;20292;-80
2023/04/21 02:20:06;;;;;;;21.83;15.00;;;;;;;;;;5113727;28;20212;-79
2023/04/21 02:22:33;;;;;;;21.77;15.43;;;;;;;;;;5108843;28;20782;-81
2023/04/21 02:25:00;;;;;;;21.00;14.97;;;;;;;;;;5102834;28;20298;-80
2023/04/21 02:27:28;;;;;;;21.60;15.00;;;;;;;;;;5094487;28;20764;-80
2023/04/21 02:29:55;;;;;;;21.13;14.97;;;;;;;;;;5094095;28;20205;-79
2023/04/21 02:32:23;;;;;;;21.57;15.00;;;;;;;;;;5094301;28;20197;-80
2023/04/21 02:34:50;;;;;;;21.20;14.83;;;;;;;;;;5094014;28;20245;-80
2023/04/21 02:37:18;;;;;;;22.33;15.73;;;;;;;;;;5093481;28;20288;-80
2023/04/21 02:39:45;;;;;;;20.40;15.43;;;;;;;;;;5095853;28;20201;-80
2023/04/21 02:42:12;;;;;;;22.90;16.50;;;;;;;;;;5114446;28;20232;-79
2023/04/21 02:44:41;;;;;;;23.57;15.50;;;;;;;;;;5113890;28;20255;-81
2023/04/21 02:47:09;;;;;;;24.93;16.17;;;;;;;;;;5112602;28;20254;-80
2023/04/21 02:49:42;;;;;;;25.97;15.97;;;;;;;;;;5113964;28;20292;-80
2023/04/21 02:52:09;;;;;;;24.03;15.83;;;;;;;;;;5113397;28;20675;-80
2023/04/21 02:54:36;;;;;;;23.70;15.73;;;;;;;;;;5113751;28;20207;-81
2023/04/21 02:57:03;;;;;;;24.63;16.77;;;;;;;;;;5114203;28;20280;-81
2023/04/21 02:59:30;;;;;;;23.57;15.97;;;;;;;;;;5113907;28;20305;-80
2023/04/21 03:01:58;;;;;;;24.10;16.13;;;;;;;;;;5114167;28;20223;-81
2023/04/21 03:04:25;;;;;;;23.20;15.90;;;;;;;;;;5113755;28;20295;-80
2023/04/21 03:06:54;;;;;;;24.70;16.13;;;;;;;;;;5113522;28;20196;-80
2023/04/21 03:09:21;;;;;;;22.43;15.93;;;;;;;;;;5113400;28;20682;-79
2023/04/21 03:11:48;;;;;;;24.50;16.57;;;;;;;;;;5113315;28;20283;-80
2023/04/21 03:14:15;;;;;;;22.97;15.70;;;;;;;;;;5113940;28;20289;-80
2023/04/21 03:16:42;;;;;;;25.33;16.17;;;;;;;;;;5113435;28;20199;-80
2023/04/21 03:19:10;;;;;;;25.00;15.93;;;;;;;;;;5113649;28;20661;-82
2023/04/21 03:21:38;;;;;;;24.47;15.50;;;;;;;;;;5112955;28;20252;-80
2023/04/21 03:24:08;;;;;;;25.63;16.27;;;;;;;;;;5113734;28;20196;-80
2023/04/21 03:26:35;;;;;;;24.63;15.80;;;;;;;;;;5113059;28;20232;-79
2023/04/21 03:29:02;;;;;;;24.93;15.77;;;;;;;;;;5113501;28;20254;-79
2023/04/21 03:31:29;;;;;;;22.87;15.93;;;;;;;;;;5113290;28;20278;-81
2023/04/21 03:33:56;;;;;;;24.47;15.97;;;;;;;;;;5112896;28;20232;-81
2023/04/21 03:36:24;;;;;;;24.97;16.33;;;;;;;;;;5113376;28;20291;-78
2023/04/21 03:38:51;;;;;;;23.50;16.40;;;;;;;;;;5113176;28;20770;-78
2023/04/21 03:41:19;;;;;;;24.87;17.03;;;;;;;;;;5112715;28;20232;-80
2023/04/21 03:43:47;;;;;;;25.67;16.90;;;;;;;;;;5113504;28;20231;-81
2023/04/21 03:46:20;;;;;;;24.17;17.00;;;;;;;;;;5113085;28;20250;-80
2023/04/21 03:48:47;;;;;;;25.17;17.13;;;;;;;;;;5112885;28;20664;-80
2023/04/21 03:51:14;;;;;;;25.63;17.60;;;;;;;;;;5112640;28;20196;-81
2023/04/21 03:53:41;;;;;;;23.17;16.33;;;;;;;;;;5112812;28;20219;-80
2023/04/21 03:56:09;;;;;;;25.23;17.67;;;;;;;;;;5113531;28;20291;-79
2023/04/21 03:58:37;;;;;;;26.43;16.90;;;;;;;;;;5112546;28;20295;-80
2023/04/21 04:01:06;;;;;;;24.90;17.27;;;;;;;;;;5112946;28;20229;-82
2023/04/21 04:03:33;;;;;;;24.70;16.70;;;;;;;;;;5112596;28;20196;-81
2023/04/21 04:06:02;;;;;;;26.93;17.83;;;;;;;;;;5112127;28;20802;-81
2023/04/21 04:08:30;;;;;;;29.07;18.43;;;;;;;;;;5112431;28;20289;-81
2023/04/21 04:10:57;;;;;;;22.97;16.73;;;;;;;;;;5112714;28;20242;-80
2023/04/21 04:13:25;;;;;;;27.03;17.17;;;;;;;;;;5113064;28;20227;-80
2023/04/21 04:15:54;;;;;;;27.83;17.70;;;;;;;;;;5112387;28;20661;-79
2023/04/21 04:18:21;;;;;;;25.20;17.77;;;;;;;;;;5112346;28;20291;-77
2023/04/21 04:20:48;;;;;;;25.80;16.80;;;;;;;;;;5112642;28;20218;-78
2023/04/21 04:23:15;;;;;;;27.20;17.77;;;;;;;;;;5112128;28;20287;-79
2023/04/21 04:25:43;;;;;;;25.83;17.30;;;;;;;;;;5112462;28;20224;-78
2023/04/21 04:28:11;;;;;;;24.70;17.00;;;;;;;;;;5112161;28;20325;-78
2023/04/21 04:30:38;;;;;;;23.03;16.90;;;;;;;;;;5112662;28;20608;-78
2023/04/21 04:33:07;;;;;;;26.00;16.93;;;;;;;;;;5111895;28;20279;-79
2023/04/21 04:35:35;;;;;;;24.33;17.20;;;;;;;;;;5112464;28;20204;-79
2023/04/21 04:38:03;;;;;;;28.43;17.77;;;;;;;;;;5112069;28;20284;-77
2023/04/21 04:40:32;;;;;;;25.63;17.40;;;;;;;;;;5112168;28;20200;-78
2023/04/21 04:43:00;;;;;;;24.57;17.23;;;;;;;;;;5111835;28;20228;-81
2023/04/21 04:45:27;;;;;;;27.53;17.47;;;;;;;;;;5111976;28;20321;-77
2023/04/21 04:47:54;;;;;;;26.03;17.83;;;;;;;;;;5111305;28;20200;-81
2023/04/21 04:50:23;;;;;;;26.97;18.00;;;;;;;;;;5112236;28;20258;-78
2023/04/21 04:52:50;;;;;;;24.63;17.93;;;;;;;;;;5112173;28;20216;-81
2023/04/21 04:55:17;;;;;;;32.20;18.13;;;;;;;;;;5111866;28;20278;-77
2023/04/21 04:57:45;;;;;;;27.00;18.43;;;;;;;;;;5112028;28;20279;-78
2023/04/21 05:00:13;;;;;;;28.80;19.80;;;;;;;;;;5111816;28;20286;-81
2023/04/21 05:02:40;;;;;;;29.37;19.17;;;;;;;;;;5110989;28;20195;-79
2023/04/21 05:05:07;;;;;;;26.73;19.07;;;;;;;;;;5111774;28;20321;-78
2023/04/21 05:07:36;;;;;;;29.53;19.87;;;;;;;;;;5112318;28;20320;-78
2023/04/21 05:10:03;;;;;;;32.93;20.13;;;;;;;;;;5111225;28;20195;-80
2023/04/21 05:12:31;;;;;;;30.73;19.50;;;;;;;;;;5111214;28;20718;-78
2023/04/21 05:14:58;;;;;;;30.93;19.67;;;;;;;;;;5111411;28;20208;-78
2023/04/21 05:17:27;;;;;;;28.97;19.50;;;;;;;;;;5111421;28;20281;-81
2023/04/21 05:19:54;;;;;;;33.20;20.00;;;;;;;;;;5111510;28;20206;-80
2023/04/21 05:22:21;;;;;;;31.73;20.53;;;;;;;;;;5111957;28;20201;-78
2023/04/21 05:24:50;;;;;;;32.47;20.70;;;;;;;;;;5111516;28;20302;-80
2023/04/21 05:27:17;;;;;;;32.50;21.00;;;;;;;;;;5111420;28;20285;-81
2023/04/21 05:29:44;;;;;;;32.77;20.07;;;;;;;;;;5111430;28;20252;-81
2023/04/21 05:32:11;;;;;;;24.67;17.53;;;;;;;;;;5111310;28;20302;-81
2023/04/21 05:34:39;;;;;;;26.10;17.97;;;;;;;;;;5111357;28;20192;-80
2023/04/21 05:37:06;;;;;;;30.43;18.20;;;;;;;;;;5111487;28;20790;-79
2023/04/21 05:39:33;;;;;;;28.87;19.20;;;;;;;;;;5111650;28;20231;-82
2023/04/21 05:42:01;;;;;;;30.83;19.77;;;;;;;;;;5111240;28;20319;-82
2023/04/21 05:44:29;;;;;;;30.70;20.00;;;;;;;;;;5111346;28;20277;-79
2023/04/21 05:46:56;;;;;;;27.00;19.10;;;;;;;;;;5111205;28;20280;-79
2023/04/21 05:49:23;;;;;;;26.07;18.13;;;;;;;;;;5111010;28;20282;-81
2023/04/21 05:51:50;;;;;;;28.87;18.40;;;;;;;;;;5111296;28;20224;-81
2023/04/21 05:54:18;;;;;;;28.13;18.37;;;;;;;;;;5111288;28;20233;-81
2023/04/21 05:56:46;;;;;;;28.40;19.30;;;;;;;;;;5111022;28;20228;-80
2023/04/21 05:59:15;;;;;;;27.70;18.43;;;;;;;;;;5111028;28;20191;-80
2023/04/21 06:01:42;;;;;;;28.93;19.60;;;;;;;;;;5110603;28;20190;-81
2023/04/21 06:04:09;;;;;;;27.07;20.07;;;;;;;;;;5111701;28;20196;-79
2023/04/21 06:06:37;;;;;;;26.70;20.70;;;;;;;;;;5111408;28;20198;-80
2023/04/21 06:09:04;;;;;;;25.60;20.10;;;;;;;;;;5110845;28;20197;-81
2023/04/21 06:11:32;;;;;;;23.93;19.37;;;;;;;;;;5111053;28;20207;-81
2023/04/21 06:14:00;;;;;;;25.57;19.43;;;;;;;;;;5110679;28;20743;-81
2023/04/21 06:16:32;;;;;;;23.77;19.40;;;;;;;;;;5110968;28;20799;-81
2023/04/21 06:19:00;;;;;;;25.33;17.97;;;;;;;;;;5110708;28;20613;-81
2023/04/21 06:21:27;;;;;;;23.90;18.17;;;;;;;;;;5111987;28;20270;-81
2023/04/21 06:23:54;;;;;;;24.37;18.97;;;;;;;;;;5114671;28;20661;-81
2023/04/21 06:26:21;;;;;;;21.37;18.27;;;;;;;;;;5114561;28;20975;-81
2023/04/21 06:28:48;;;;;;;21.27;17.63;;;;;;;;;;5113657;28;20205;-81
2023/04/21 06:31:16;;;;;;;21.37;18.83;;;;;;;;;;5114481;28;20225;-81
2023/04/21 06:33:45;;;;;;;20.83;18.53;;;;;;;;;;5114717;28;20212;-81
2023/04/21 06:36:12;;;;;;;19.40;16.90;;;;;;;;;;5114364;28;20274;-81
2023/04/21 06:38:41;;;;;;;21.10;18.80;;;;;;;;;;5114121;28;20292;-82
2023/04/21 06:41:09;;;;;;;22.40;18.90;;;;;;;;;;5114008;28;20685;-80
2023/04/21 06:43:36;;;;;;;20.37;18.27;;;;;;;;;;5113853;28;20631;-82
2023/04/21 06:46:03;;;;;;;20.37;18.17;;;;;;;;;;5114173;28;20623;-81
2023/04/21 06:48:31;;;;;;;20.00;17.00;;;;;;;;;;5114401;28;20296;-82
2023/04/21 06:51:01;;;;;;;20.23;17.77;;;;;;;;;;5114402;28;20255;-82
2023/04/21 06:53:28;;;;;;;21.70;18.60;;;;;;;;;;5113600;28;20240;-81
2023/04/21 06:55:56;;;;;;;22.43;18.27;;;;;;;;;;5113884;28;20748;-81
2023/04/21 06:58:23;;;;;;;20.70;18.23;;;;;;;;;;5114085;28;20721;-82
2023/04/21 07:00:50;;;;;;;22.20;19.07;;;;;;;;;;5113273;28;20584;-82
2023/04/21 07:03:17;;;;;;;23.13;19.40;;;;;;;;;;5113872;28;20202;-82
2023/04/21 07:05:44;;;;;;;23.67;19.80;;;;;;;;;;5113630;28;20221;-83
2023/04/21 07:08:13;;;;;;;21.40;18.90;;;;;;;;;;5114096;28;20292;-82
2023/04/21 07:10:40;;;;;;;22.73;20.33;;;;;;;;;;5113686;28;20198;-83
2023/04/21 07:13:08;;;;;;;22.33;20.13;;;;;;;;;;5113189;28;20201;-83
2023/04/21 07:15:35;;;;;;;22.13;19.83;;;;;;;;;;5113474;28;20198;-83
2023/04/21 07:18:02;;;;;;;24.13;19.40;;;;;;;;;;5113713;28;20194;-82
2023/04/21 07:20:29;;;;;;;22.00;19.70;;;;;;;;;;5113570;28;20194;-83
2023/04/21 07:22:56;;;;;;;21.92;19.73;;;;;;;;;;5113391;28;20284;-82
2023/04/21 07:25:25;;;;;;;22.73;20.33;;;;;;;;;;5113667;28;20280;-83
2023/04/21 07:27:52;;;;;;;22.55;20.13;;;;;;;;;;5113195;28;20289;-83
2023/04/21 07:30:19;;;;;;;21.42;19.23;;;;;;;;;;5113212;28;20214;-82
2023/04/21 07:32:47;;;;;;;21.58;19.38;;;;;;;;;;5113074;28;20190;-83
2023/04/21 07:35:14;;;;;;;23.80;19.80;;;;;;;;;;5113349;28;20247;-83
2023/04/21 07:37:41;;;;;;;21.05;19.05;;;;;;;;;;5113460;28;20642;-82
2023/04/21 07:40:09;;;;;;;20.85;18.75;;;;;;;;;;5112881;28;20233;-84
2023/04/21 07:42:38;;;;;;;20.75;18.60;;;;;;;;;;5112410;28;20234;-83
2023/04/21 07:45:05;;;;;;;20.75;18.65;;;;;;;;;;5113276;28;20318;-82
2023/04/21 07:47:33;;;;;;;20.88;18.88;;;;;;;;;;5113210;28;20254;-83
2023/04/21 07:50:00;;;;;;;21.55;18.73;;;;;;;;;;5113476;28;20289;-83
2023/04/21 07:52:27;;;;;;;21.08;18.80;;;;;;;;;;5112673;28;20281;-83
2023/04/21 07:54:54;;;;;;;20.83;18.63;;;;;;;;;;5113373;28;20204;-83
2023/04/21 07:57:22;;;;;;;20.35;18.33;;;;;;;;;;5112599;28;20222;-84
2023/04/21 07:59:50;;;;;;;20.63;18.73;;;;;;;;;;5112643;28;20728;-84
2023/04/21 08:02:18;;;;;;;19.92;18.08;;;;;;;;;;5113057;28;20233;-84
2023/04/21 08:04:45;;;;;;;21.10;18.98;;;;;;;;;;5112450;28;20548;-83
2023/04/21 08:07:14;;;;;;;20.25;18.25;;;;;;;;;;5111083;28;20280;-83
2023/04/21 08:09:41;;;;;;;21.13;19.08;;;;;;;;;;5112517;28;20254;-84
2023/04/21 08:12:08;;;;;;;20.20;18.17;;;;;;;;;;5108699;28;20212;-83
2023/04/21 08:14:35;;;;;;;20.20;18.20;;;;;;;;;;5102901;28;20658;-84
2023/04/21 08:17:04;;;;;;;20.23;18.33;;;;;;;;;;5112747;28;20374;-83
2023/04/21 08:19:31;;;;;;;19.58;17.58;;;;;;;;;;5112526;28;20212;-83
2023/04/21 08:21:58;;;;;;;20.33;18.35;;;;;;;;;;5111656;28;20281;-86
2023/04/21 08:24:25;;;;;;;21.60;19.27;;;;;;;;;;5096799;28;20198;-84
2023/04/21 08:26:52;;;;;;;20.75;17.95;;;;;;;;;;5111875;28;20281;-84
2023/04/21 08:29:20;;;;;;;19.88;17.77;;;;;;;;;;5098090;28;20233;-85
2023/04/21 08:31:47;;;;;;;19.45;17.50;;;;;;;;;;5097493;28;20277;-83
2023/04/21 08:34:15;;;;;;;19.20;17.30;;;;;;;;;;5111506;28;20288;-83
2023/04/21 08:36:43;;;;;;;19.60;17.25;;;;;;;;;;5109957;28;20613;-83
2023/04/21 08:39:10;;;;;;;18.45;16.55;;;;;;;;;;5105734;28;20199;-83
2023/04/21 08:41:40;;;;;;;19.23;17.23;;;;;;;;;;5099688;28;20244;-84
2023/04/21 08:44:07;;;;;;;17.83;16.05;;;;;;;;;;5092967;28;20612;-85
2023/04/21 08:46:35;;;;;;;18.58;16.77;;;;;;;;;;5100144;28;20190;-84
2023/04/21 08:49:03;;;;;;;18.70;16.80;;;;;;;;;;5111939;28;20285;-84
2023/04/21 08:51:32;;;;;;;18.13;15.52;;;;;;;;;;5110254;28;20280;-83
2023/04/21 08:53:59;;;;;;;17.83;16.02;;;;;;;;;;5108463;28;20738;-84
2023/04/21 08:56:27;;;;;;;19.15;17.25;;;;;;;;;;5108036;28;20272;-83
2023/04/21 08:58:54;;;;;;;19.10;17.20;;;;;;;;;;5112254;28;20281;-85
2023/04/21 09:01:21;;;;;;;18.80;16.92;;;;;;;;;;5111572;28;20273;-84
2023/04/21 09:03:48;;;;;;;18.98;16.98;;;;;;;;;;5104570;28;20217;-84
2023/04/21 09:06:16;;;;;;;18.23;16.45;;;;;;;;;;5111253;28;20273;-84
2023/04/21 09:08:45;;;;;;;18.27;16.38;;;;;;;;;;5107058;28;20201;-84
2023/04/21 09:11:14;;;;;;;18.48;16.67;;;;;;;;;;5101819;28;20246;-85
2023/04/21 09:13:43;;;;;;;18.00;16.10;;;;;;;;;;5111235;28;20637;-83
2023/04/21 09:16:16;;;;;;;18.27;16.40;;;;;;;;;;5108363;28;20280;-85
2023/04/21 09:18:45;;;;;;;17.55;15.75;;;;;;;;;;5107478;28;20209;-85
2023/04/21 09:21:13;;;;;;;17.27;15.57;;;;;;;;;;5111791;28;20186;-84
2023/04/21 09:23:41;;;;;;;17.90;16.20;;;;;;;;;;5110359;28;20196;-84
2023/04/21 09:26:10;;;;;;;17.65;15.95;;;;;;;;;;5103086;28;20201;-84
2023/04/21 09:28:37;;;;;;;17.60;15.85;;;;;;;;;;5099289;28;20282;-85
2023/04/21 09:31:05;;;;;;;18.40;16.60;;;;;;;;;;5101335;28;20281;-85
2023/04/21 09:33:35;;;;;;;18.55;16.75;;;;;;;;;;5107604;28;20198;-85
2023/04/21 09:36:03;;;;;;;17.88;16.15;;;;;;;;;;5112041;28;20197;-85
2023/04/21 09:38:30;;;;;;;18.38;16.55;;;;;;;;;;5108710;28;20225;-88
2023/04/21 09:40:57;;;;;;;17.15;15.52;;;;;;;;;;5111773;28;20285;-86
2023/04/21 09:43:26;;;;;;;17.60;15.90;;;;;;;;;;5111952;28;20229;-85
2023/04/21 09:45:54;;;;;;;18.25;16.45;;;;;;;;;;5111256;28;20201;-85
2023/04/21 09:48:22;;;;;;;18.48;16.58;;;;;;;;;;5111240;28;20289;-85
2023/04/21 09:50:50;;;;;;;17.80;16.15;;;;;;;;;;5094437;28;20208;-86
2023/04/21 09:53:19;;;;;;;18.00;16.13;;;;;;;;;;5091237;28;20198;-84
2023/04/21 09:55:48;;;;;;;17.55;15.75;;;;;;;;;;5111529;28;20204;-85
2023/04/21 09:58:16;;;;;;;17.85;16.05;;;;;;;;;;5115478;28;20257;-85
2023/04/21 10:00:45;;;;;;;18.25;16.45;;;;;;;;;;5111741;28;20194;-86
2023/04/21 10:03:13;;;;;;;17.63;15.93;;;;;;;;;;5111473;28;20197;-85
2023/04/21 10:05:40;;;;;;;18.13;16.25;;;;;;;;;;5112924;28;20642;-85
2023/04/21 10:08:10;;;;;;;18.35;16.60;;;;;;;;;;5108035;27;20201;-85
2023/04/21 10:10:37;;;;;;;18.15;16.00;;;;;;;;;;5111564;28;20193;-84
2023/04/21 10:13:05;;;;;;;16.92;15.32;;;;;;;;;;5113303;28;20288;-86
2023/04/21 10:15:33;;;;;;;16.88;15.20;;;;;;;;;;5112194;28;20746;-85
2023/04/21 10:18:15;;;;;;;17.85;16.02;;;;;;;;;;5114371;28;20221;-85
2023/04/21 10:20:53;;;;;;;18.48;16.60;;;;;;;;;;5110489;28;20200;-84
2023/04/21 10:23:33;;;;;;;17.67;15.93;;;;;;;;;;5114736;28;20208;-84
2023/04/21 10:26:05;;;;;;;16.33;14.73;;;;;;;;;;5112232;28;20289;-84
2023/04/21 10:28:49;;;;;;;16.77;15.00;;;;;;;;;;5096843;28;20202;-84
2023/04/21 10:31:37;;;;;;;17.75;15.30;;;;;;;;;;5110651;28;20201;-84
2023/04/21 10:34:19;;;;;;;15.88;14.32;;;;;;;;;;5112269;27;20208;-85
2023/04/21 10:37:08;;;;;;;16.40;14.75;;;;;;;;;;5105287;28;20289;-86
2023/04/21 10:39:36;;;;;;;15.05;13.65;;;;;;;;;;5115894;28;20284;-85
2023/04/21 10:42:21;;;;;;;15.38;13.90;;;;;;;;;;5112370;28;20233;-85
2023/04/21 10:44:52;;;;;;;15.93;14.32;;;;;;;;;;5107506;28;20201;-85
2023/04/21 10:47:25;;;;;;;16.88;15.23;;;;;;;;;;5114226;28;20194;-85
2023/04/21 10:49:52;;;;;;;16.10;14.60;;;;;;;;;;5115185;28;20196;-85
2023/04/21 10:52:21;;;;;;;16.73;15.13;;;;;;;;;;5116750;28;20273;-85
2023/04/21 10:55:03;;;;;;;16.38;14.68;;;;;;;;;;5116575;28;20265;-85
2023/04/21 10:57:31;;;;;;;15.48;13.95;;;;;;;;;;5123216;27;20263;-85
2023/04/21 10:59:58;;;;;;;13.68;12.38;;;;;;;;;;5116489;28;20281;-85
2023/04/21 11:02:25;;;;;;;13.65;12.40;;;;;;;;;;5116567;28;20642;-85
2023/04/21 11:04:53;;;;;;;11.57;10.57;;;;;;;;;;5116593;28;20193;-85
2023/04/21 11:07:22;;;;;;;11.95;10.85;;;;;;;;;;5115238;28;20285;-86
2023/04/21 11:09:57;;;;;;;11.35;10.27;;;;;;;;;;5116567;28;20194;-85
2023/04/21 11:12:27;;;;;;;13.38;12.02;;;;;;;;;;5116857;28;20201;-85
2023/04/21 11:14:54;;;;;;;14.20;12.80;;;;;;;;;;5116675;28;20190;-86
2023/04/21 11:17:22;;;;;;;14.52;13.13;;;;;;;;;;5117149;28;20252;-86
2023/04/21 11:19:51;;;;;;;14.25;12.85;;;;;;;;;;5115854;28;20201;-85
2023/04/21 11:22:18;;;;;;;14.32;12.95;;;;;;;;;;5116527;27;20297;-86
2023/04/21 11:24:47;;;;;;;15.63;14.10;;;;;;;;;;5116653;28;20273;-86
2023/04/21 11:27:15;;;;;;;15.07;13.65;;;;;;;;;;5116384;28;20284;-87
2023/04/21 11:29:42;;;;;;;13.98;12.68;;;;;;;;;;5114110;27;20198;-84
2023/04/21 11:32:10;;;;;;;14.43;13.02;;;;;;;;;;5116754;27;20233;-84
2023/04/21 11:34:38;;;;;;;15.15;13.75;;;;;;;;;;5114735;28;20269;-85
2023/04/21 11:37:05;;;;;;;14.43;12.95;;;;;;;;;;5116022;27;20236;-86
2023/04/21 11:39:33;;;;;;;14.32;12.93;;;;;;;;;;5103049;27;20293;-86
2023/04/21 11:42:01;;;;;;;13.68;12.32;;;;;;;;;;5131538;27;20274;-87
2023/04/21 11:44:32;;;;;;;14.07;12.60;;;;;;;;;;5116286;28;20246;-85
2023/04/21 11:47:00;;;;;;;13.63;12.32;;;;;;;;;;5116057;28;20243;-87
2023/04/21 11:49:29;;;;;;;13.95;12.50;;;;;;;;;;5116303;28;20216;-86
2023/04/21 11:51:56;;;;;;;14.27;12.88;;;;;;;;;;5116581;28;20242;-86
2023/04/21 11:54:24;;;;;;;14.00;12.60;;;;;;;;;;5115885;28;20672;-86
2023/04/21 11:56:52;;;;;;;13.65;12.25;;;;;;;;;;5116023;28;20194;-85
2023/04/21 11:59:25;;;;;;;12.88;11.57;;;;;;;;;;5115775;28;20243;-86
2023/04/21 12:01:52;;;;;;;13.30;11.98;;;;;;;;;;5116193;28;20228;-86
2023/04/21 12:04:20;;;;;;;13.07;11.77;;;;;;;;;;5116812;27;20296;-86
2023/04/21 12:06:48;;;;;;;13.10;11.80;;;;;;;;;;5115302;28;20221;-87
2023/04/21 12:09:19;;;;;;;12.13;10.93;;;;;;;;;;5114183;28;20285;-86
2023/04/21 12:11:48;;;;;;;11.85;10.75;;;;;;;;;;5113517;28;20688;-85
2023/04/21 12:14:16;;;;;;;12.23;11.02;;;;;;;;;;5113734;28;20201;-85
2023/04/21 12:16:44;;;;;;;12.80;11.60;;;;;;;;;;5113208;28;20194;-86
2023/04/21 12:19:12;;;;;;;12.77;11.48;;;;;;;;;;5113345;28;20264;-86
2023/04/21 12:21:39;;;;;;;12.27;11.07;;;;;;;;;;5113089;28;20229;-86
2023/04/21 12:24:06;;;;;;;11.93;10.82;;;;;;;;;;5113569;28;20189;-89
2023/04/21 12:26:33;;;;;;;13.00;11.60;;;;;;;;;;5114840;28;20190;-90
2023/04/21 12:29:01;;;;;;;12.60;11.40;;;;;;;;;;5113449;28;20277;-86
2023/04/21 12:31:29;;;;;;;12.43;11.30;;;;;;;;;;5108732;27;20286;-86
2023/04/21 12:33:57;;;;;;;12.30;11.10;;;;;;;;;;5109745;27;20661;-87
2023/04/21 12:36:26;;;;;;;12.43;11.25;;;;;;;;;;5111140;27;20221;-85
2023/04/21 12:38:53;;;;;;;12.70;11.13;;;;;;;;;;5112550;28;20225;-83
2023/04/21 12:41:21;;;;;;;11.73;10.52;;;;;;;;;;5111680;28;20228;-83
2023/04/21 12:43:48;;;;;;;12.45;11.25;;;;;;;;;;5111736;28;20684;-84
2023/04/21 12:46:15;;;;;;;12.18;11.07;;;;;;;;;;5111602;28;20749;-85
2023/04/21 12:48:43;;;;;;;11.77;10.65;;;;;;;;;;5112305;28;20198;-83
2023/04/21 12:51:11;;;;;;;11.98;10.77;;;;;;;;;;5112076;28;20204;-84
2023/04/21 12:53:38;;;;;;;12.02;10.82;;;;;;;;;;5111654;28;20285;-84
2023/04/21 12:56:06;;;;;;;12.15;10.95;;;;;;;;;;5111538;28;20229;-83
2023/04/21 12:58:33;;;;;;;12.10;10.90;;;;;;;;;;5111804;28;20317;-83
2023/04/21 13:01:00;;;;;;;11.48;10.38;;;;;;;;;;5111561;28;20282;-83
2023/04/21 13:03:27;;;;;;;11.68;10.48;;;;;;;;;;5111351;28;20221;-84
2023/04/21 13:05:54;;;;;;;11.88;10.68;;;;;;;;;;5112033;28;20221;-83
2023/04/21 13:08:23;;;;;;;12.67;11.37;;;;;;;;;;5111437;28;20289;-84
2023/04/21 13:10:50;;;;;;;12.23;11.03;;;;;;;;;;5111950;28;20201;-83
2023/04/21 13:13:17;;;;;;;12.40;11.13;;;;;;;;;;5111503;28;20236;-84
2023/04/21 13:15:45;;;;;;;12.32;11.13;;;;;;;;;;5111145;28;20194;-86
2023/04/21 13:18:12;;;;;;;13.60;11.63;;;;;;;;;;5111198;28;20221;-84
2023/04/21 13:20:39;;;;;;;12.85;11.55;;;;;;;;;;5111355;28;20286;-82
2023/04/21 13:23:07;;;;;;;13.00;11.70;;;;;;;;;;5111550;28;20197;-82
2023/04/21 13:25:36;;;;;;;13.23;11.83;;;;;;;;;;5111341;28;20201;-82
2023/04/21 13:28:03;;;;;;;13.43;12.13;;;;;;;;;;5111273;28;20627;-82
2023/04/21 13:30:30;;;;;;;13.23;11.82;;;;;;;;;;5112630;28;20284;-82
2023/04/21 13:32:57;;;;;;;11.97;10.77;;;;;;;;;;5115250;28;20288;-83
2023/04/21 13:35:25;;;;;;;11.93;10.77;;;;;;;;;;5115661;28;20232;-82
2023/04/21 13:37:53;;;;;;;12.40;11.10;;;;;;;;;;5115264;28;20792;-81
2023/04/21 13:40:20;;;;;;;13.17;11.83;;;;;;;;;;5115457;28;20193;-84
2023/04/21 13:42:48;;;;;;;12.47;11.13;;;;;;;;;;5114924;28;20252;-84
2023/04/21 13:45:16;;;;;;;13.33;12.03;;;;;;;;;;5114651;28;20289;-82
2023/04/21 13:47:44;;;;;;;13.70;12.03;;;;;;;;;;5115061;28;20662;-82
2023/04/21 13:50:11;;;;;;;12.93;10.97;;;;;;;;;;5115694;28;20611;-83
2023/04/21 13:52:38;;;;;;;13.00;11.70;;;;;;;;;;5115035;28;20280;-83
2023/04/21 13:55:06;;;;;;;13.20;11.80;;;;;;;;;;5109446;28;20227;-82
2023/04/21 13:57:33;;;;;;;13.10;11.80;;;;;;;;;;5115047;28;20185;-83
2023/04/21 14:00:03;;;;;;;12.97;11.67;;;;;;;;;;5114680;28;20320;-82
2023/04/21 14:02:31;;;;;;;14.70;12.32;;;;;;;;;;5114931;28;20217;-82
2023/04/21 14:04:58;;;;;;;14.35;12.23;;;;;;;;;;5111149;28;20297;-82
2023/04/21 14:07:25;;;;;;;12.02;10.82;;;;;;;;;;5114176;28;20540;-84
2023/04/21 14:09:53;;;;;;;12.77;11.57;;;;;;;;;;5114837;28;20201;-82
2023/04/21 14:12:20;;;;;;;12.82;11.63;;;;;;;;;;5114393;28;20234;-83
2023/04/21 14:14:47;;;;;;;12.60;11.30;;;;;;;;;;5113583;28;20202;-83
2023/04/21 14:17:16;;;;;;;12.68;11.38;;;;;;;;;;5114582;28;20661;-82
2023/04/21 14:19:43;;;;;;;13.40;12.00;;;;;;;;;;5114804;28;20278;-82
2023/04/21 14:22:10;;;;;;;12.97;11.57;;;;;;;;;;5114452;28;20194;-82
2023/04/21 14:24:38;;;;;;;13.13;11.83;;;;;;;;;;5114574;28;20285;-82